Time;durP1;ratioP1;P1;durP2;ratioP2;P2;SDS_P1;SDS_P2;PMS_P1;PMS_P2;Temp;Humidity;BMP_temperature;BMP_pressure;BME280_temperature;BME280_humidity;BME280_pressure;Samples;Min_cycle;Max_cycle;Signal;HPM_P1;HPM_P2
2022/10/06 00:00:32;;;;;;;2.00;1.90;;;9.20;99.90;;;;;;5022936;28;20037;-37
2022/10/06 00:02:58;;;;;;;2.28;2.08;;;9.20;99.90;;;;;;5023087;28;20022;-39
2022/10/06 00:05:24;;;;;;;2.38;1.65;;;9.10;99.90;;;;;;5023707;28;20042;-34
2022/10/06 00:07:49;;;;;;;1.83;1.73;;;8.70;99.90;;;;;;5025797;28;20030;-39
2022/10/06 00:10:16;;;;;;;2.58;2.38;;;8.40;99.90;;;;;;5022650;28;20117;-37
2022/10/06 00:12:47;;;;;;;3.15;2.60;;;8.20;99.90;;;;;;5020436;28;20045;-33
2022/10/06 00:15:16;;;;;;;2.80;2.10;;;8.10;99.90;;;;;;5024340;28;20026;-38
2022/10/06 00:17:41;;;;;;;1.77;1.67;;;8.00;99.90;;;;;;5021951;28;20371;-37
2022/10/06 00:20:08;;;;;;;1.90;1.80;;;7.90;99.90;;;;;;5022284;28;20049;-39
2022/10/06 00:22:35;;;;;;;4.20;1.83;;;7.90;99.90;;;;;;5022563;28;20084;-38
2022/10/06 00:25:02;;;;;;;1.95;1.83;;;7.90;99.90;;;;;;5022164;28;20486;-38
2022/10/06 00:27:35;;;;;;;2.92;2.40;;;7.90;99.90;;;;;;5021679;28;20413;-39
2022/10/06 00:30:07;;;;;;;2.38;2.17;;;7.90;99.90;;;;;;5020006;28;20033;-34
2022/10/06 00:32:32;;;;;;;2.20;2.00;;;7.90;99.90;;;;;;5020514;28;20038;-37
2022/10/06 00:34:58;;;;;;;2.22;2.03;;;7.90;99.90;;;;;;5021719;28;20143;-39
2022/10/06 00:37:25;;;;;;;3.33;1.75;;;7.90;99.90;;;;;;5021891;28;20028;-39
2022/10/06 00:39:50;;;;;;;2.55;1.95;;;7.70;99.90;;;;;;5021626;28;20509;-39
2022/10/06 00:42:28;;;;;;;1.73;1.63;;;7.70;99.90;;;;;;5011282;28;20110;-39
2022/10/06 00:44:56;;;;;;;2.35;1.90;;;7.60;99.90;;;;;;5021279;28;20037;-39
2022/10/06 00:47:24;;;;;;;2.75;2.20;;;7.60;99.90;;;;;;5022558;28;20076;-39
2022/10/06 00:49:53;;;;;;;2.00;1.80;;;7.60;99.90;;;;;;5023280;28;20067;-39
2022/10/06 00:52:20;;;;;;;;;;;7.40;99.90;;;;;;5022900;28;20186;-35
2022/10/06 00:54:46;;;;;;;1.90;1.80;;;7.40;99.90;;;;;;5021862;28;19928;-31
2022/10/06 00:57:12;;;;;;;2.50;2.30;;;7.30;99.90;;;;;;5019729;28;20025;-39
2022/10/06 00:59:38;;;;;;;2.65;2.10;;;7.40;99.90;;;;;;5022938;28;20036;-34
2022/10/06 01:02:10;;;;;;;2.72;2.30;;;7.40;99.90;;;;;;5022887;28;20041;-32
2022/10/06 01:04:39;;;;;;;2.40;2.20;;;7.40;99.90;;;;;;5019708;28;20033;-33
2022/10/06 01:07:06;;;;;;;4.22;3.25;;;7.60;99.90;;;;;;5005634;28;20471;-33
2022/10/06 01:09:33;;;;;;;3.13;2.78;;;7.70;99.90;;;;;;5023680;28;20025;-33
2022/10/06 01:12:03;;;;;;;2.63;2.42;;;7.80;99.90;;;;;;5021977;28;20025;-32
2022/10/06 01:14:29;;;;;;;3.38;3.10;;;7.80;99.90;;;;;;5023105;28;20021;-31
2022/10/06 01:17:34;;;;;;;4.68;2.90;;;7.90;99.90;;;;;;5024876;28;20113;-33
2022/10/06 01:20:07;;;;;;;3.33;2.60;;;8.00;99.90;;;;;;5022772;28;20060;-32
2022/10/06 01:22:40;;;;;;;5.22;3.17;;;8.00;99.90;;;;;;5025437;28;20132;-35
2022/10/06 01:25:08;;;;;;;3.05;2.75;;;8.00;99.90;;;;;;5024207;28;20021;-32
2022/10/06 01:27:36;;;;;;;2.90;2.53;;;8.10;99.90;;;;;;5019074;28;20060;-34
2022/10/06 01:30:13;;;;;;;2.83;2.58;;;8.00;99.90;;;;;;5005452;28;20486;-32
2022/10/06 01:32:39;;;;;;;2.30;2.17;;;8.10;99.90;;;;;;5020298;28;20033;-32
2022/10/06 01:35:07;;;;;;;4.55;3.00;;;8.10;99.90;;;;;;5023303;28;20037;-32
2022/10/06 01:37:32;;;;;;;3.28;2.53;;;8.10;99.90;;;;;;5018836;28;20039;-32
2022/10/06 01:39:58;;;;;;;5.25;2.63;;;8.10;99.90;;;;;;5024389;28;20037;-35
2022/10/06 01:42:24;;;;;;;3.28;2.40;;;8.10;99.90;;;;;;5023928;28;20026;-35
2022/10/06 01:44:49;;;;;;;5.13;2.55;;;8.00;99.90;;;;;;5022030;28;20018;-31
2022/10/06 01:47:15;;;;;;;2.83;2.60;;;8.10;99.90;;;;;;5022202;28;20248;-31
2022/10/06 01:49:41;;;;;;;2.50;2.30;;;8.10;99.90;;;;;;5026139;28;20026;-32
2022/10/06 01:52:07;;;;;;;2.80;2.40;;;8.10;99.90;;;;;;5021522;28;20029;-32
2022/10/06 01:54:32;;;;;;;2.50;2.17;;;8.10;99.90;;;;;;5024567;28;20095;-31
2022/10/06 01:56:59;;;;;;;2.33;2.13;;;8.10;99.90;;;;;;5024174;28;20065;-32
2022/10/06 01:59:24;;;;;;;2.28;2.08;;;8.00;99.90;;;;;;5001288;28;20136;-33
2022/10/06 02:01:50;;;;;;;2.83;2.42;;;8.00;99.90;;;;;;5026403;28;20583;-32
2022/10/06 02:04:16;;;;;;;3.00;2.35;;;8.00;99.90;;;;;;5026953;28;20025;-34
2022/10/06 02:06:42;;;;;;;3.40;2.45;;;8.00;99.90;;;;;;5027249;28;20471;-33
2022/10/06 02:09:11;;;;;;;2.45;2.25;;;8.10;99.90;;;;;;5027195;28;20087;-31
2022/10/06 02:11:37;;;;;;;2.55;2.10;;;8.10;99.90;;;;;;5024347;28;20024;-33
2022/10/06 02:14:03;;;;;;;4.43;2.40;;;8.20;99.90;;;;;;5025625;28;20517;-37
2022/10/06 02:16:30;;;;;;;3.10;2.50;;;8.20;99.90;;;;;;5023095;28;20021;-32
2022/10/06 02:18:55;;;;;;;1.75;1.65;;;8.20;99.90;;;;;;5025696;28;20025;-32
2022/10/06 02:21:22;;;;;;;3.90;2.22;;;8.20;99.90;;;;;;5029475;28;20508;-32
2022/10/06 02:23:48;;;;;;;3.42;2.15;;;8.10;99.90;;;;;;5022216;28;20036;-32
2022/10/06 02:26:18;;;;;;;2.40;2.20;;;8.20;99.90;;;;;;5031385;28;20108;-32
2022/10/06 02:28:45;;;;;;;2.88;2.50;;;8.20;99.90;;;;;;5026565;28;20398;-32
2022/10/06 02:31:12;;;;;;;2.42;2.22;;;8.10;99.90;;;;;;5026944;28;20040;-32
2022/10/06 02:33:39;;;;;;;3.65;2.60;;;8.10;99.90;;;;;;5027912;28;20087;-32
2022/10/06 02:36:06;;;;;;;3.85;2.80;;;8.20;99.90;;;;;;5025854;28;20044;-31
2022/10/06 02:38:32;;;;;;;2.67;2.47;;;8.30;99.90;;;;;;5029398;28;20076;-33
2022/10/06 02:40:58;;;;;;;3.80;2.28;;;8.30;99.90;;;;;;5027784;28;20508;-33
2022/10/06 02:43:27;;;;;;;4.55;2.80;;;8.30;99.90;;;;;;5022195;28;20057;-33
2022/10/06 02:45:54;;;;;;;3.03;2.72;;;8.30;99.90;;;;;;5027028;28;20022;-32
2022/10/06 02:48:23;;;;;;;2.78;2.58;;;8.30;99.90;;;;;;5023606;28;20083;-32
2022/10/06 02:50:56;;;;;;;4.28;2.65;;;8.40;99.90;;;;;;5026051;28;20138;-33
2022/10/06 02:53:24;;;;;;;2.80;2.28;;;8.40;99.90;;;;;;5006234;28;20475;-34
2022/10/06 02:55:49;;;;;;;3.00;2.67;;;8.40;99.90;;;;;;5030806;28;20032;-32
2022/10/06 02:58:15;;;;;;;3.03;2.60;;;8.40;99.90;;;;;;5027348;28;20462;-34
2022/10/06 03:00:40;;;;;;;3.42;2.47;;;8.40;99.90;;;;;;5018944;28;20037;-31
2022/10/06 03:03:09;;;;;;;3.00;2.53;;;8.30;99.90;;;;;;5022423;28;20467;-32
2022/10/06 03:05:35;;;;;;;2.75;2.55;;;8.20;99.90;;;;;;5023903;28;20030;-33
2022/10/06 03:08:00;;;;;;;2.63;2.42;;;8.20;99.90;;;;;;5021661;28;20025;-31
2022/10/06 03:10:26;;;;;;;3.22;2.53;;;8.20;99.90;;;;;;5028303;28;20576;-32
2022/10/06 03:12:51;;;;;;;4.15;2.83;;;8.20;99.90;;;;;;5025817;28;20055;-33
2022/10/06 03:15:19;;;;;;;3.00;2.38;;;8.20;99.90;;;;;;5027653;28;20101;-31
2022/10/06 03:17:48;;;;;;;2.72;2.53;;;8.20;99.90;;;;;;5025516;28;20083;-32
2022/10/06 03:20:14;;;;;;;2.40;2.20;;;8.10;99.90;;;;;;5023209;28;20040;-34
2022/10/06 03:22:40;;;;;;;3.20;2.50;;;8.10;99.90;;;;;;5028469;28;20037;-32
2022/10/06 03:25:06;;;;;;;4.18;2.30;;;7.90;99.90;;;;;;5026797;28;20025;-31
2022/10/06 03:27:32;;;;;;;2.03;1.92;;;7.90;99.90;;;;;;5020756;28;20025;-32
2022/10/06 03:29:57;;;;;;;2.20;1.92;;;7.70;99.90;;;;;;5024871;28;20018;-32
2022/10/06 03:32:23;;;;;;;2.13;1.80;;;7.60;99.90;;;;;;5022226;28;20052;-31
2022/10/06 03:34:49;;;;;;;5.22;1.80;;;7.50;99.90;;;;;;5026202;28;20132;-33
2022/10/06 03:37:14;;;;;;;3.45;2.22;;;7.40;99.90;;;;;;5023962;28;20025;-32
2022/10/06 03:39:40;;;;;;;3.45;1.83;;;7.40;99.90;;;;;;5025367;28;20036;-33
2022/10/06 03:42:06;;;;;;;3.13;2.10;;;7.30;99.90;;;;;;5026919;28;20122;-32
2022/10/06 03:44:33;;;;;;;1.92;1.80;;;7.50;99.90;;;;;;5022990;28;20029;-32
2022/10/06 03:46:59;;;;;;;4.35;1.67;;;7.40;99.90;;;;;;5025317;28;20030;-33
2022/10/06 03:49:25;;;;;;;2.05;1.70;;;7.30;99.90;;;;;;5008419;28;20036;-32
2022/10/06 03:51:52;;;;;;;3.33;2.05;;;7.30;99.90;;;;;;5023252;28;20038;-31
2022/10/06 03:54:18;;;;;;;3.05;2.08;;;7.40;99.90;;;;;;5022490;28;20025;-32
2022/10/06 03:56:43;;;;;;;2.85;2.65;;;7.50;99.90;;;;;;5025226;28;20037;-33
2022/10/06 03:59:11;;;;;;;2.47;2.10;;;7.50;99.90;;;;;;5026699;28;20029;-31
2022/10/06 04:01:43;;;;;;;3.58;2.50;;;7.50;99.90;;;;;;5023948;28;20494;-31
2022/10/06 04:04:09;;;;;;;3.95;2.80;;;7.60;99.90;;;;;;5026291;28;20489;-34
2022/10/06 04:06:38;;;;;;;3.95;2.30;;;7.60;99.90;;;;;;5025831;28;20021;-32
2022/10/06 04:09:06;;;;;;;3.10;2.58;;;7.60;99.90;;;;;;5025022;28;20033;-31
2022/10/06 04:11:36;;;;;;;4.32;2.60;;;7.70;99.90;;;;;;5021976;28;20497;-32
2022/10/06 04:14:07;;;;;;;6.60;2.63;;;7.70;99.90;;;;;;5022376;28;20469;-31
2022/10/06 04:16:38;;;;;;;3.45;2.40;;;7.70;99.90;;;;;;5024460;28;20045;-34
2022/10/06 04:19:08;;;;;;;2.58;2.30;;;7.80;99.90;;;;;;5022191;28;20057;-32
2022/10/06 04:21:35;;;;;;;2.75;2.22;;;7.70;99.90;;;;;;5024284;28;20761;-31
2022/10/06 04:24:02;;;;;;;2.53;2.00;;;7.70;99.90;;;;;;5026161;28;20104;-33
2022/10/06 04:26:30;;;;;;;2.55;2.35;;;7.70;99.90;;;;;;5020581;28;20036;-31
2022/10/06 04:28:56;;;;;;;4.72;2.72;;;7.80;99.90;;;;;;5027797;28;20029;-32
2022/10/06 04:31:25;;;;;;;4.07;2.35;;;7.70;99.90;;;;;;5023738;28;20030;-31
2022/10/06 04:33:56;;;;;;;5.95;2.55;;;7.70;99.90;;;;;;5023804;28;20045;-34
2022/10/06 04:36:27;;;;;;;5.10;2.35;;;7.70;99.90;;;;;;5021645;28;20030;-32
2022/10/06 04:38:57;;;;;;;4.35;2.20;;;7.80;99.90;;;;;;5024371;28;20100;-32
2022/10/06 04:41:28;;;;;;;3.92;2.38;;;7.70;99.90;;;;;;5024782;28;20079;-31
2022/10/06 04:43:54;;;;;;;3.88;3.55;;;7.70;99.90;;;;;;5025900;28;20034;-32
2022/10/06 04:46:21;;;;;;;5.18;2.22;;;7.60;99.90;;;;;;5020155;28;20036;-35
2022/10/06 04:48:49;;;;;;;2.25;2.00;;;7.70;99.90;;;;;;5024147;28;20059;-32
2022/10/06 04:51:15;;;;;;;2.85;2.50;;;7.70;99.90;;;;;;5025242;28;20030;-32
2022/10/06 04:53:43;;;;;;;2.20;2.00;;;7.70;99.90;;;;;;5023038;28;20506;-32
2022/10/06 04:56:26;;;;;;;5.68;2.38;;;7.80;99.90;;;;;;5023400;28;20065;-31
2022/10/06 04:58:54;;;;;;;5.07;2.47;;;7.80;99.90;;;;;;5025855;28;20033;-31
2022/10/06 05:01:23;;;;;;;3.17;2.60;;;7.90;99.90;;;;;;5023182;28;22168;-31
2022/10/06 05:03:51;;;;;;;4.40;2.90;;;7.80;99.90;;;;;;5020934;28;20033;-31
2022/10/06 05:06:20;;;;;;;3.08;2.50;;;7.90;99.90;;;;;;5023587;28;20735;-31
2022/10/06 05:08:48;;;;;;;3.15;2.40;;;7.90;99.90;;;;;;5024334;28;20045;-32
2022/10/06 05:11:14;;;;;;;3.65;2.35;;;8.00;99.90;;;;;;5019869;28;20029;-37
2022/10/06 05:13:40;;;;;;;3.40;2.58;;;7.90;99.90;;;;;;5024273;28;20569;-29
2022/10/06 05:16:07;;;;;;;3.00;2.42;;;8.00;99.90;;;;;;5024850;28;20156;-30
2022/10/06 05:18:34;;;;;;;2.67;2.47;;;7.90;99.90;;;;;;5019700;28;21933;-30
2022/10/06 05:21:06;;;;;;;3.40;2.50;;;7.90;99.90;;;;;;5023506;28;20040;-29
2022/10/06 05:23:35;;;;;;;2.22;2.00;;;7.80;99.90;;;;;;5022485;28;20033;-33
2022/10/06 05:26:03;;;;;;;2.67;2.42;;;7.70;99.90;;;;;;5023637;28;20025;-31
2022/10/06 05:28:30;;;;;;;;;;;7.50;99.90;;;;;;5020289;28;21646;-32
2022/10/06 05:31:07;;;;;;;3.72;2.30;;;7.50;99.90;;;;;;5022276;28;19917;-32
2022/10/06 05:33:34;;;;;;;2.78;2.28;;;7.50;99.90;;;;;;5007522;28;20041;-32
2022/10/06 05:36:03;;;;;;;3.78;2.95;;;7.60;99.90;;;;;;5029071;28;20069;-33
2022/10/06 05:38:29;;;;;;;4.03;3.30;;;7.60;99.90;;;;;;5027762;28;20056;-31
2022/10/06 05:41:14;;;;;;;4.97;3.08;;;7.60;99.90;;;;;;5031223;28;20033;-32
2022/10/06 05:43:40;;;;;;;3.95;2.90;;;7.70;99.90;;;;;;5027894;28;20505;-31
2022/10/06 05:46:11;;;;;;;4.10;2.72;;;7.80;99.90;;;;;;5029643;28;20104;-32
2022/10/06 05:48:37;;;;;;;3.88;3.03;;;7.90;99.90;;;;;;5028786;28;20028;-32
2022/10/06 05:51:05;;;;;;;8.70;3.63;;;7.90;99.90;;;;;;5029944;28;20026;-31
2022/10/06 05:53:34;;;;;;;4.22;3.20;;;7.90;99.90;;;;;;5032900;28;20088;-34
2022/10/06 05:56:09;;;;;;;2.63;2.42;;;7.90;99.90;;;;;;5031876;28;20032;-31
2022/10/06 05:58:37;;;;;;;3.72;2.92;;;7.80;99.90;;;;;;5025555;28;20041;-37
2022/10/06 06:01:09;;;;;;;4.78;2.90;;;7.90;99.90;;;;;;5030047;28;20185;-32
2022/10/06 06:03:36;;;;;;;5.22;3.10;;;7.90;99.90;;;;;;5027877;28;20065;-34
2022/10/06 06:06:03;;;;;;;4.30;2.67;;;7.90;99.90;;;;;;5032119;28;20037;-35
2022/10/06 06:08:29;;;;;;;4.40;2.90;;;7.90;99.90;;;;;;5016073;28;20033;-32
2022/10/06 06:10:54;;;;;;;2.75;2.55;;;7.80;99.90;;;;;;5033050;28;20552;-31
2022/10/06 06:13:21;;;;;;;3.60;2.85;;;7.90;99.90;;;;;;5028737;28;20064;-33
2022/10/06 06:15:59;;;;;;;3.47;2.70;;;8.00;99.90;;;;;;5031338;28;20064;-32
2022/10/06 06:18:29;;;;;;;5.22;3.20;;;8.00;99.90;;;;;;5011327;28;20036;-34
2022/10/06 06:21:03;;;;;;;2.60;2.40;;;8.10;99.90;;;;;;5030671;28;20083;-31
2022/10/06 06:23:37;;;;;;;4.95;3.45;;;8.20;99.90;;;;;;5031910;28;20049;-33
2022/10/06 06:26:08;;;;;;;5.50;2.78;;;8.30;99.90;;;;;;5031913;28;20025;-31
2022/10/06 06:28:35;;;;;;;3.90;3.25;;;8.40;99.90;;;;;;5029962;28;20033;-30
2022/10/06 06:31:09;;;;;;;5.82;3.17;;;8.50;99.90;;;;;;5029441;28;20029;-34
2022/10/06 06:33:40;;;;;;;8.40;3.70;;;8.60;99.90;;;;;;5032001;28;21240;-32
2022/10/06 06:36:19;;;;;;;3.65;3.17;;;8.70;99.90;;;;;;5029309;28;20517;-33
2022/10/06 06:38:51;;;;;;;;;;;8.90;99.90;;;;;;5015869;28;20032;-34
2022/10/06 06:41:20;;;;;;;4.78;3.13;;;8.90;99.90;;;;;;5030303;28;19916;-31
2022/10/06 06:43:46;;;;;;;6.65;3.92;;;9.10;99.90;;;;;;5026717;28;20042;-34
2022/10/06 06:46:16;;;;;;;6.95;3.53;;;9.20;99.90;;;;;;5031995;28;20034;-32
2022/10/06 06:48:42;;;;;;;6.40;3.42;;;9.40;99.90;;;;;;5030787;28;20042;-34
2022/10/06 06:51:12;;;;;;;4.25;3.58;;;9.60;99.90;;;;;;5031358;28;20397;-32
2022/10/06 06:53:40;;;;;;;4.03;3.63;;;9.60;99.90;;;;;;5027244;28;20394;-30
2022/10/06 06:56:08;;;;;;;4.60;3.97;;;9.70;99.90;;;;;;5027785;28;20036;-33
2022/10/06 06:58:37;;;;;;;5.03;4.05;;;9.90;99.90;;;;;;5029476;28;20037;-31
2022/10/06 07:01:12;;;;;;;6.18;3.70;;;10.00;99.90;;;;;;5009171;28;20188;-35
2022/10/06 07:03:47;;;;;;;5.22;3.65;;;10.10;99.90;;;;;;5028026;28;20030;-31
2022/10/06 07:06:15;;;;;;;3.85;3.42;;;10.20;99.90;;;;;;5028610;28;20052;-32
2022/10/06 07:08:45;;;;;;;5.70;3.47;;;10.30;99.90;;;;;;5028095;28;20037;-31
2022/10/06 07:11:26;;;;;;;4.85;3.10;;;10.60;99.90;;;;;;5023203;28;20094;-30
2022/10/06 07:13:53;;;;;;;4.30;2.97;;;10.70;99.90;;;;;;5028028;28;20045;-30
2022/10/06 07:25:07;;;;;;;5.50;3.17;;;11.20;99.90;;;;;;5024194;28;20074;-31
2022/10/06 07:27:42;;;;;;;3.30;3.00;;;11.30;99.90;;;;;;5026992;28;20025;-30
2022/10/06 07:30:11;;;;;;;4.47;2.70;;;11.50;99.90;;;;;;5027597;28;20029;-32
2022/10/06 07:32:37;;;;;;;4.18;2.90;;;11.60;99.90;;;;;;5025539;28;20477;-30
2022/10/06 07:35:05;;;;;;;5.07;3.10;;;11.70;99.90;;;;;;5027316;28;20025;-35
2022/10/06 07:37:33;;;;;;;5.43;3.22;;;11.90;99.90;;;;;;5021871;28;20029;-31
2022/10/06 07:39:59;;;;;;;4.60;2.95;;;12.10;99.90;;;;;;5028979;28;20032;-35
2022/10/06 07:42:25;;;;;;;5.28;3.17;;;12.20;99.90;;;;;;5026144;28;20033;-32
2022/10/06 07:47:57;;;;;;;7.45;3.40;;;12.50;99.90;;;;;;4951744;28;20070;-32
2022/10/06 07:50:24;;;;;;;3.15;2.17;;;12.70;99.90;;;;;;5014210;28;20030;-34
2022/10/06 07:52:50;;;;;;;6.10;2.97;;;12.90;99.90;;;;;;5027186;28;20029;-31
2022/10/06 07:55:16;;;;;;;5.82;2.90;;;13.00;99.90;;;;;;5027281;28;20044;-31
2022/10/06 07:57:45;;;;;;;7.35;3.05;;;13.20;99.90;;;;;;5026356;28;20115;-32
2022/10/06 08:00:14;;;;;;;4.20;3.03;;;13.30;99.90;;;;;;5006670;28;20367;-34
2022/10/06 08:02:43;;;;;;;4.82;2.47;;;13.50;99.90;;;;;;5023716;28;20048;-33
2022/10/06 08:05:09;;;;;;;4.70;2.72;;;13.70;99.90;;;;;;5026096;28;20025;-34
2022/10/06 08:07:34;;;;;;;3.60;2.83;;;14.00;99.90;;;;;;5027226;28;20067;-31
2022/10/06 08:10:00;;;;;;;4.22;2.60;;;14.20;99.90;;;;;;5027808;28;20705;-31
2022/10/06 08:12:31;;;;;;;3.50;2.53;;;14.30;99.90;;;;;;5023744;28;20084;-35
2022/10/06 08:14:58;;;;;;;6.10;3.05;;;14.50;99.90;;;;;;5025433;28;20116;-32
2022/10/06 08:17:24;;;;;;;3.88;2.65;;;14.60;99.90;;;;;;5024833;28;20032;-32
2022/10/06 08:19:50;;;;;;;3.38;2.65;;;14.70;99.90;;;;;;5025539;28;20029;-32
2022/10/06 08:22:15;;;;;;;4.55;2.97;;;14.80;99.90;;;;;;5023070;28;20028;-31
2022/10/06 08:24:44;;;;;;;3.35;2.75;;;15.00;99.90;;;;;;5024285;28;20573;-32
2022/10/06 08:27:09;;;;;;;3.72;2.70;;;15.10;99.90;;;;;;5010416;28;20041;-32
2022/10/06 08:29:35;;;;;;;4.15;2.70;;;15.20;99.90;;;;;;5025264;28;20033;-31
2022/10/06 08:32:01;;;;;;;3.90;2.40;;;15.30;99.90;;;;;;5025339;28;20030;-34
2022/10/06 08:34:27;;;;;;;4.00;2.78;;;15.50;99.90;;;;;;5026613;28;20029;-35
2022/10/06 08:36:53;;;;;;;2.60;2.35;;;15.60;99.90;;;;;;5027490;28;20552;-31
2022/10/06 08:39:19;;;;;;;6.13;2.42;;;15.80;99.90;;;;;;5024519;28;20025;-33
2022/10/06 08:41:50;;;;;;;4.47;2.67;;;15.80;99.90;;;;;;5021115;28;20030;-30
2022/10/06 08:44:31;;;;;;;5.10;2.55;;;15.80;99.90;;;;;;5008492;28;20036;-32
2022/10/06 08:47:00;;;;;;;5.55;2.58;;;15.70;99.90;;;;;;5026772;28;20070;-29
2022/10/06 08:49:35;;;;;;;3.00;2.67;;;15.80;99.90;;;;;;5028603;28;20036;-30
2022/10/06 08:52:06;;;;;;;6.53;3.00;;;15.70;99.90;;;;;;5024650;28;20036;-33
2022/10/06 08:55:01;;;;;;;4.22;2.58;;;15.70;99.90;;;;;;5027379;28;20021;-32
2022/10/06 08:57:48;;;;;;;3.53;2.70;;;15.80;99.90;;;;;;5025844;28;20034;-30
2022/10/06 09:00:16;;;;;;;4.07;2.60;;;15.90;99.90;;;;;;5025285;28;20509;-30
2022/10/06 09:02:44;;;;;;;3.47;2.58;;;16.10;99.90;;;;;;5028126;28;20114;-32
2022/10/06 09:05:11;;;;;;;;;;;16.20;99.90;;;;;;5022575;28;20072;-31
2022/10/06 09:07:47;;;;;;;5.03;2.58;;;16.30;99.90;;;;;;5025301;28;20385;-30
2022/10/06 09:10:27;;;;;;;4.35;2.60;;;16.40;99.90;;;;;;5022505;28;20555;-30
2022/10/06 09:13:08;;;;;;;2.90;2.60;;;16.60;99.90;;;;;;5029314;28;20044;-31
2022/10/06 09:15:53;;;;;;;3.83;2.50;;;16.40;99.90;;;;;;5024680;28;20048;-31
2022/10/06 09:18:35;;;;;;;3.75;2.30;;;16.50;99.90;;;;;;5025627;28;20030;-33
2022/10/06 09:21:22;;;;;;;3.83;2.50;;;16.70;99.90;;;;;;5026214;28;20068;-32
2022/10/06 09:24:02;;;;;;;3.95;2.88;;;16.80;99.90;;;;;;5021309;28;20041;-30
2022/10/06 09:26:33;;;;;;;4.43;2.38;;;16.70;99.90;;;;;;5025147;28;20387;-31
2022/10/06 09:28:59;;;;;;;3.10;2.55;;;16.90;99.90;;;;;;5025470;28;20042;-30
2022/10/06 09:31:27;;;;;;;6.43;2.88;;;17.10;99.90;;;;;;5024581;28;20490;-30
2022/10/06 09:33:58;;;;;;;5.03;2.88;;;17.30;99.90;;;;;;5023113;28;20029;-32
2022/10/06 09:36:24;;;;;;;3.53;2.50;;;17.30;99.90;;;;;;5027354;28;20057;-32
2022/10/06 09:38:54;;;;;;;3.05;2.60;;;17.50;99.90;;;;;;5026643;28;20022;-31
2022/10/06 09:41:44;;;;;;;5.25;2.85;;;17.50;99.90;;;;;;5026764;28;20029;-31
2022/10/06 09:44:26;;;;;;;4.05;2.83;;;17.70;99.90;;;;;;5019890;28;20509;-31
2022/10/06 09:46:52;;;;;;;3.97;2.78;;;17.80;99.90;;;;;;5025093;28;20025;-31
2022/10/06 09:49:21;;;;;;;7.15;2.90;;;18.00;99.90;;;;;;5024519;28;20115;-31
2022/10/06 09:52:14;;;;;;;3.45;2.55;;;18.10;99.90;;;;;;5024143;28;20040;-31
2022/10/06 09:54:42;;;;;;;5.63;2.85;;;18.10;99.90;;;;;;5025090;28;20037;-30
2022/10/06 09:57:09;;;;;;;;;;;17.90;99.90;;;;;;5024314;28;20030;-33
2022/10/06 09:59:40;;;;;;;4.60;2.78;;;17.90;99.90;;;;;;5025146;28;20242;-30
2022/10/06 10:02:30;;;;;;;4.13;2.88;;;17.90;99.90;;;;;;5024109;28;20034;-29
2022/10/06 10:04:57;;;;;;;7.18;3.28;;;17.80;99.90;;;;;;5024158;28;20092;-31
2022/10/06 10:07:28;;;;;;;2.92;2.25;;;17.80;99.90;;;;;;5023949;28;20029;-33
2022/10/06 10:10:24;;;;;;;2.85;2.58;;;17.70;99.90;;;;;;5028649;28;20100;-30
2022/10/06 10:12:55;;;;;;;4.35;2.83;;;17.60;99.90;;;;;;5022826;28;20049;-31
2022/10/06 10:15:20;;;;;;;5.63;2.88;;;17.80;99.90;;;;;;5023626;28;20398;-32
2022/10/06 10:18:12;;;;;;;3.88;2.67;;;17.60;99.90;;;;;;5019782;28;20022;-36
2022/10/06 10:20:49;;;;;;;3.72;2.67;;;17.60;99.90;;;;;;5026900;28;20030;-31
2022/10/06 10:23:28;;;;;;;3.45;2.60;;;17.60;99.90;;;;;;5024495;28;20056;-29
2022/10/06 10:26:18;;;;;;;5.50;2.50;;;17.60;99.90;;;;;;5011487;28;20108;-34
2022/10/06 10:29:02;;;;;;;3.08;2.30;;;17.60;99.90;;;;;;5029910;28;20056;-32
2022/10/06 10:32:06;;;;;;;3.70;2.70;;;17.70;99.90;;;;;;5011089;28;20049;-34
2022/10/06 10:34:45;;;;;;;4.05;3.17;;;17.80;99.90;;;;;;5029173;28;20044;-31
2022/10/06 10:37:23;;;;;;;4.78;2.72;;;17.80;99.90;;;;;;5027633;28;20053;-30
2022/10/06 10:40:16;;;;;;;2.97;2.63;;;17.80;99.90;;;;;;5026552;28;20041;-30
2022/10/06 10:42:55;;;;;;;3.47;2.47;;;17.80;99.90;;;;;;5027742;28;20115;-32
2022/10/06 10:45:32;;;;;;;4.50;2.83;;;17.80;99.90;;;;;;5028076;28;20082;-30
2022/10/06 10:48:00;;;;;;;3.13;2.42;;;17.80;99.90;;;;;;5026088;28;20037;-30
2022/10/06 10:50:28;;;;;;;5.50;2.90;;;17.80;99.90;;;;;;5029705;28;20366;-30
2022/10/06 10:53:00;;;;;;;;;;;17.70;99.90;;;;;;5028626;28;20022;-34
2022/10/06 10:55:36;;;;;;;4.03;2.65;;;17.50;99.90;;;;;;5024957;28;19910;-30
2022/10/06 10:58:16;;;;;;;5.90;2.70;;;17.30;99.90;;;;;;5026672;28;20029;-30
2022/10/06 11:00:44;;;;;;;5.68;2.80;;;17.40;99.90;;;;;;5030971;28;20120;-33
2022/10/06 11:03:10;;;;;;;5.45;2.80;;;17.30;99.90;;;;;;5025157;28;20050;-33
2022/10/06 11:06:15;;;;;;;5.65;2.90;;;17.30;99.90;;;;;;5030867;28;20526;-32
2022/10/06 11:09:06;;;;;;;2.78;2.47;;;17.40;99.90;;;;;;4994279;28;20057;-29
2022/10/06 11:11:47;;;;;;;4.40;2.72;;;17.40;99.90;;;;;;5028967;28;20052;-30
2022/10/06 11:14:44;;;;;;;3.15;2.40;;;17.40;99.90;;;;;;5039011;28;20476;-30
2022/10/06 11:17:28;;;;;;;2.50;2.30;;;17.40;99.90;;;;;;4999658;28;20051;-29
2022/10/06 11:20:10;;;;;;;2.42;2.22;;;17.40;99.90;;;;;;5027723;28;20087;-32
2022/10/06 11:22:49;;;;;;;4.30;2.45;;;17.40;99.90;;;;;;5024567;28;20088;-31
2022/10/06 11:25:45;;;;;;;4.07;3.42;;;17.50;99.90;;;;;;5031273;28;20024;-32
2022/10/06 11:28:18;;;;;;;4.22;2.83;;;17.50;99.90;;;;;;4990719;28;20037;-32
2022/10/06 11:31:27;;;;;;;4.10;2.50;;;17.60;99.90;;;;;;5007111;28;20030;-31
2022/10/06 11:33:56;;;;;;;5.30;2.65;;;17.70;99.90;;;;;;5027721;28;20037;-30
2022/10/06 11:36:59;;;;;;;3.78;2.60;;;17.80;99.90;;;;;;5027214;28;20075;-29
2022/10/06 11:39:48;;;;;;;4.10;3.10;;;17.80;99.90;;;;;;5026756;28;20064;-32
2022/10/06 11:42:29;;;;;;;3.80;2.42;;;17.90;99.90;;;;;;5026630;28;20033;-34
2022/10/06 11:45:12;;;;;;;5.55;2.28;;;18.10;99.90;;;;;;5026023;28;20446;-30
2022/10/06 11:47:54;;;;;;;7.18;3.28;;;18.20;99.90;;;;;;5029858;28;20038;-29
2022/10/06 11:50:39;;;;;;;2.97;2.78;;;18.20;99.90;;;;;;5032057;28;20034;-30
2022/10/06 11:53:21;;;;;;;5.15;2.63;;;18.40;99.90;;;;;;5029785;28;20037;-30
2022/10/06 11:55:47;;;;;;;3.13;2.80;;;18.40;99.90;;;;;;5023803;28;20029;-30
2022/10/06 11:58:14;;;;;;;3.20;2.20;;;18.40;99.90;;;;;;5027868;28;20036;-30
2022/10/06 12:00:43;;;;;;;5.40;2.65;;;18.30;99.90;;;;;;5029824;28;20121;-30
2022/10/06 12:03:43;;;;;;;4.97;2.55;;;18.20;99.90;;;;;;5030138;28;20121;-31
2022/10/06 12:06:41;;;;;;;6.18;2.55;;;18.20;99.90;;;;;;5010793;28;20116;-30
2022/10/06 12:09:26;;;;;;;3.85;2.90;;;18.10;99.90;;;;;;5027985;28;20104;-31
2022/10/06 12:12:00;;;;;;;2.92;2.60;;;18.30;99.90;;;;;;5034117;28;20493;-31
2022/10/06 12:14:48;;;;;;;4.47;2.47;;;18.50;99.90;;;;;;5027256;28;20446;-31
2022/10/06 12:17:26;;;;;;;2.35;2.13;;;18.50;99.90;;;;;;5031516;28;20038;-31
2022/10/06 12:20:18;;;;;;;5.47;2.10;;;18.60;99.90;;;;;;5026521;28;20025;-36
2022/10/06 12:22:57;;;;;;;3.17;2.13;;;18.60;99.90;;;;;;5028791;28;20076;-31
2022/10/06 12:25:42;;;;;;;4.38;2.08;;;18.50;99.90;;;;;;5022162;28;20037;-33
2022/10/06 12:28:34;;;;;;;2.58;2.10;;;18.50;99.90;;;;;;5020091;28;20061;-31
2022/10/06 12:31:24;;;;;;;2.63;2.38;;;18.50;99.90;;;;;;5026213;28;20401;-31
2022/10/06 12:33:49;;;;;;;3.15;2.08;;;18.50;99.90;;;;;;5028169;28;20033;-30
2022/10/06 12:36:21;;;;;;;2.83;2.50;;;18.50;99.90;;;;;;5030532;28;20086;-32
2022/10/06 12:39:04;;;;;;;4.68;2.75;;;18.50;99.90;;;;;;5027613;28;20029;-32
2022/10/06 12:42:17;;;;;;;2.40;2.08;;;18.60;99.90;;;;;;5025311;28;20040;-30
2022/10/06 12:44:50;;;;;;;2.83;1.92;;;18.70;99.90;;;;;;5030501;28;20457;-32
2022/10/06 12:47:22;;;;;;;2.22;2.00;;;18.80;99.90;;;;;;5030129;28;20021;-30
2022/10/06 12:49:52;;;;;;;2.92;2.03;;;18.80;99.90;;;;;;5030717;28;20036;-34
2022/10/06 12:52:37;;;;;;;2.65;2.20;;;18.80;99.90;;;;;;5030673;28;20112;-32
2022/10/06 12:55:11;;;;;;;5.07;2.38;;;18.60;99.90;;;;;;5028120;28;20032;-31
2022/10/06 12:57:45;;;;;;;4.22;2.30;;;18.80;99.90;;;;;;5024616;28;20026;-31
2022/10/06 13:00:33;;;;;;;3.72;2.40;;;18.70;99.90;;;;;;5028878;28;20040;-31
2022/10/06 13:03:01;;;;;;;;;;;18.80;99.90;;;;;;5036158;28;20103;-30
2022/10/06 13:05:27;;;;;;;;;;;18.80;99.90;;;;;;5028390;28;19917;-30
2022/10/06 13:08:00;;;;;;;4.18;2.20;;;18.80;98.90;;;;;;5012752;28;20429;-30
2022/10/06 13:10:28;;;;;;;3.63;2.13;;;18.80;99.90;;;;;;5031713;28;20026;-33
2022/10/06 13:12:56;;;;;;;;;;;18.70;99.90;;;;;;5037957;28;20098;-31
2022/10/06 13:15:28;;;;;;;2.95;2.22;;;18.70;99.90;;;;;;5031465;28;19916;-31
2022/10/06 13:18:08;;;;;;;4.80;2.30;;;18.60;99.90;;;;;;5030206;28;20029;-31
2022/10/06 13:20:41;;;;;;;3.60;2.08;;;18.60;99.90;;;;;;5027068;28;20040;-31
2022/10/06 13:23:23;;;;;;;3.08;2.17;;;18.60;99.90;;;;;;5012321;28;20040;-30
2022/10/06 13:25:52;;;;;;;3.13;2.92;;;18.60;99.90;;;;;;5025000;28;20543;-33
2022/10/06 13:28:27;;;;;;;3.83;2.22;;;18.60;99.90;;;;;;5028632;28;20387;-30
2022/10/06 13:31:20;;;;;;;2.20;2.03;;;18.70;99.90;;;;;;5024195;28;20390;-31